No particular awareness of the weather is required.    There are no Weather-warnings


Meteo18 Weather Cam more information Meteo18 Weather Cam


Thunder radar more information blitzortung!


Rain radar more information rain snow radar


Visit our other weather sites:

Template documentation
and downloads

And another site



Weather Underground History page Text

Daily Summary for April 2, 2017 Units:  English    Metric   Both
« Previous Day
Next Day »
Daily Weekly Monthly Yearly Custom
  High: Low: Average:
Temperature: TemperatureC °F 3.9 °F 10.1 °F
Dew Point: DewpointC °F 3.3 °F 6.9 °F
Humidity: Humidity % 60 % 82 %
Wind Speed: WindSpeedKMH mph 0.0 mph 2.2 mph
Wind Gust: WindSpeedGustKMH mph - -
Wind:- - SSW
Pressure: PressurehPa in 1016.5 in -
Precipitation: 0.0 in    
Historical Graphs
 
 
Tabular Data for April 2, 2017
Time Temperature Dew Point Pressure Wind Wind Speed Wind Gust Humidity Rainfall Rate (Hourly)
TemperatureC °F DewpointC °F PressurehPa in Calm     Humidity % HourlyPrecipMM in
00:02 8.2 °F 6.5 °F 1016.5 in SSW 1.6 mph   89 % 0.0 in
00:07 8.3 °F 6.4 °F 1016.5 in SW 3.2 mph 4.8 mph 88 % 0.0 in
00:12 8.4 °F 6.4 °F 1016.5 in SW 1.6 mph 4.8 mph 87 % 0.0 in
00:17 8.5 °F 6.5 °F 1016.5 in WSW 1.6 mph 4.8 mph 87 % 0.0 in
00:22 8.6 °F 6.4 °F 1016.5 in Calm   6.4 mph 86 % 0.0 in
00:27 8.5 °F 6.3 °F 1016.5 in Calm   3.2 mph 86 % 0.0 in
00:32 8.4 °F 6.2 °F 1016.5 in Calm   3.2 mph 86 % 0.0 in
00:37 8.3 °F 6.3 °F 1016.5 in West 1.6 mph 3.2 mph 87 % 0.0 in
00:42 8.4 °F 6.4 °F 1016.5 in Calm   4.8 mph 87 % 0.0 in
00:52 8.4 °F 6.2 °F 1016.8 in Calm   4.8 mph 86 % 0.0 in
00:57 8.3 °F 6.1 °F 1016.5 in Calm   3.2 mph 86 % 0.0 in
01:02 8.0 °F 6.0 °F 1016.8 in NE 1.6 mph 1.6 mph 87 % 0.0 in
01:12 7.7 °F 6.0 °F 1016.5 in Calm   1.6 mph 89 % 0.0 in
01:17 7.7 °F 6.0 °F 1016.8 in Calm   1.6 mph 89 % 0.0 in
01:22 7.6 °F 5.9 °F 1016.5 in Calm   1.6 mph 89 % 0.0 in
01:32 7.4 °F 6.0 °F 1016.8 in Calm     91 % 0.0 in
01:37 7.4 °F 5.9 °F 1016.8 in Calm     90 % 0.0 in
01:42 7.3 °F 5.9 °F 1016.8 in Calm     91 % 0.0 in
01:47 7.3 °F 5.9 °F 1016.8 in Calm     91 % 0.0 in
01:52 7.2 °F 5.8 °F 1016.8 in Calm   1.6 mph 91 % 0.0 in
01:57 7.1 °F 5.7 °F 1016.8 in Calm   1.6 mph 91 % 0.0 in
02:02 7.0 °F 5.6 °F 1016.8 in Calm   1.6 mph 91 % 0.0 in
02:07 6.9 °F 5.7 °F 1016.8 in Calm     92 % 0.0 in
02:12 6.9 °F 5.7 °F 1016.8 in Calm     92 % 0.0 in
02:17 6.9 °F 5.7 °F 1016.8 in SSE 1.6 mph 3.2 mph 92 % 0.0 in
02:22 6.8 °F 5.6 °F 1016.8 in Calm   3.2 mph 92 % 0.0 in
02:32 6.7 °F 5.5 °F 1016.8 in Calm   1.6 mph 92 % 0.0 in
02:37 6.7 °F 5.5 °F 1016.8 in Calm     92 % 0.0 in
02:42 6.6 °F 5.4 °F 1016.8 in Calm     92 % 0.0 in
02:47 6.5 °F 5.3 °F 1016.8 in Calm     92 % 0.0 in
02:52 6.3 °F 5.1 °F 1016.8 in Calm     92 % 0.0 in
02:57 6.1 °F 4.9 °F 1016.8 in Calm     92 % 0.0 in
03:02 5.9 °F 4.9 °F 1016.8 in Calm     93 % 0.0 in
03:07 6.0 °F 5.0 °F 1016.8 in Calm     93 % 0.0 in
03:12 6.0 °F 5.0 °F 1016.8 in Calm     93 % 0.0 in
03:17 5.9 °F 5.0 °F 1016.8 in Calm     94 % 0.0 in
03:22 5.8 °F 4.9 °F 1016.8 in Calm     94 % 0.0 in
03:27 5.8 °F 4.9 °F 1016.8 in Calm     94 % 0.0 in
03:32 5.8 °F 4.9 °F 1016.8 in Calm     94 % 0.0 in
03:37 5.8 °F 4.9 °F 1016.8 in Calm     94 % 0.0 in
03:42 5.7 °F 4.8 °F 1016.8 in Calm     94 % 0.0 in
03:47 5.7 °F 5.0 °F 1017.2 in Calm     95 % 0.0 in
03:52 5.7 °F 5.0 °F 1016.8 in Calm     95 % 0.0 in
03:57 5.6 °F 4.7 °F 1016.8 in Calm     94 % 0.0 in
04:02 5.6 °F 4.9 °F 1016.8 in Calm     95 % 0.0 in
04:07 5.5 °F 4.8 °F 1016.8 in Calm     95 % 0.0 in
04:12 5.6 °F 4.9 °F 1016.8 in Calm     95 % 0.0 in
04:17 5.7 °F 5.0 °F 1016.8 in Calm     95 % 0.0 in
04:22 5.7 °F 5.0 °F 1016.8 in Calm     95 % 0.0 in
04:27 5.7 °F 5.0 °F 1016.8 in SSW 1.6 mph 3.2 mph 95 % 0.0 in
04:32 5.5 °F 4.6 °F 1016.8 in Calm   3.2 mph 94 % 0.0 in
04:37 5.2 °F 4.3 °F 1016.8 in Calm   3.2 mph 94 % 0.0 in
04:42 4.9 °F 4.0 °F 1016.8 in Calm   1.6 mph 94 % 0.0 in
04:47 4.9 °F 4.2 °F 1016.8 in Calm   1.6 mph 95 % 0.0 in
04:52 4.9 °F 4.2 °F 1016.8 in Calm     95 % 0.0 in
04:57 4.9 °F 4.2 °F 1016.8 in Calm     95 % 0.0 in
05:02 4.8 °F 4.1 °F 1016.8 in Calm     95 % 0.0 in
05:12 5.1 °F 4.5 °F 1017.2 in Calm     96 % 0.0 in
05:17 5.1 °F 4.5 °F 1017.2 in Calm     96 % 0.0 in
05:22 5.1 °F 4.5 °F 1017.2 in Calm     96 % 0.0 in
05:27 5.1 °F 4.5 °F 1017.2 in Calm     96 % 0.0 in
05:32 5.1 °F 4.5 °F 1017.2 in Calm     96 % 0.0 in
05:37 5.1 °F 4.5 °F 1017.2 in Calm     96 % 0.0 in
05:42 4.9 °F 4.3 °F 1017.2 in Calm   1.6 mph 96 % 0.0 in
05:47 4.9 °F 4.3 °F 1017.2 in SW 1.6 mph 1.6 mph 96 % 0.0 in
05:52 4.7 °F 4.0 °F 1017.2 in Calm   1.6 mph 95 % 0.0 in
05:57 4.3 °F 3.6 °F 1017.2 in Calm   1.6 mph 95 % 0.0 in
06:02 4.2 °F 3.5 °F 1017.5 in Calm   1.6 mph 95 % 0.0 in
06:07 4.3 °F 3.7 °F 1017.5 in Calm     96 % 0.0 in
06:12 4.8 °F 4.4 °F 1017.5 in Calm     97 % 0.0 in
06:17 4.6 °F 4.2 °F 1017.5 in East 1.6 mph   97 % 0.0 in
06:22 4.3 °F 3.6 °F 1017.5 in Calm   3.2 mph 95 % 0.0 in
06:27 4.3 °F 3.7 °F 1017.5 in Calm   3.2 mph 96 % 0.0 in
06:32 4.2 °F 3.6 °F 1017.5 in Calm   3.2 mph 96 % 0.0 in
06:37 4.1 °F 3.5 °F 1017.5 in Calm     96 % 0.0 in
06:42 4.1 °F 3.5 °F 1017.8 in Calm     96 % 0.0 in
06:47 4.1 °F 3.5 °F 1017.5 in Calm     96 % 0.0 in
06:57 3.9 °F 3.3 °F 1017.8 in ENE 1.6 mph 1.6 mph 96 % 0.0 in
07:02 4.1 °F 3.5 °F 1017.8 in Calm   1.6 mph 96 % 0.0 in
07:07 4.3 °F 3.7 °F 1017.8 in Calm   1.6 mph 96 % 0.0 in
07:12 4.3 °F 3.7 °F 1017.8 in Calm   1.6 mph 96 % 0.0 in
07:17 4.2 °F 3.6 °F 1018.2 in Calm   1.6 mph 96 % 0.0 in
07:22 4.3 °F 3.7 °F 1018.2 in Calm     96 % 0.0 in
07:27 4.4 °F 3.8 °F 1018.2 in Calm   1.6 mph 96 % 0.0 in
07:32 4.4 °F 3.8 °F 1018.2 in Calm   1.6 mph 96 % 0.0 in
07:37 4.4 °F 3.8 °F 1018.5 in Calm   1.6 mph 96 % 0.0 in
07:42 4.4 °F 3.8 °F 1018.5 in Calm   1.6 mph 96 % 0.0 in
07:47 4.5 °F 3.9 °F 1018.5 in Calm   1.6 mph 96 % 0.0 in
07:52 4.6 °F 4.2 °F 1018.5 in Calm   1.6 mph 97 % 0.0 in
07:57 4.6 °F 4.0 °F 1018.5 in Calm     96 % 0.0 in
08:02 4.6 °F 4.0 °F 1018.5 in Calm     96 % 0.0 in
08:07 4.5 °F 3.9 °F 1018.8 in Calm     96 % 0.0 in
08:12 4.5 °F 3.9 °F 1018.8 in Calm     96 % 0.0 in
08:17 4.6 °F 4.0 °F 1018.8 in Calm     96 % 0.0 in
08:22 4.7 °F 4.1 °F 1018.8 in Calm     96 % 0.0 in
08:27 4.7 °F 4.1 °F 1018.8 in Calm     96 % 0.0 in
08:32 4.8 °F 4.2 °F 1018.8 in Calm     96 % 0.0 in
08:37 5.3 °F 4.9 °F 1018.8 in Calm     97 % 0.0 in
08:42 5.6 °F 5.2 °F 1019.2 in Calm     97 % 0.0 in
08:47 5.5 °F 4.9 °F 1019.2 in Calm     96 % 0.0 in
08:57 5.7 °F 5.1 °F 1019.2 in Calm     96 % 0.0 in
09:02 6.0 °F 5.6 °F 1019.2 in Calm     97 % 0.0 in
09:07 6.1 °F 5.5 °F 1019.2 in SW 1.6 mph 1.6 mph 96 % 0.0 in
09:12 6.2 °F 5.8 °F 1019.5 in WSW 1.6 mph 3.2 mph 97 % 0.0 in
09:17 6.4 °F 6.0 °F 1019.5 in SW 1.6 mph 3.2 mph 97 % 0.0 in
09:22 6.5 °F 6.1 °F 1019.5 in Calm   3.2 mph 97 % 0.0 in
09:27 6.7 °F 6.3 °F 1019.5 in Calm   3.2 mph 97 % 0.0 in
09:32 6.8 °F 6.4 °F 1019.5 in WSW 1.6 mph 4.8 mph 97 % 0.0 in
09:37 7.0 °F 6.6 °F 1019.5 in Calm   4.8 mph 97 % 0.0 in
09:42 7.2 °F 6.8 °F 1019.9 in Calm   3.2 mph 97 % 0.0 in
09:47 7.3 °F 6.9 °F 1019.9 in Calm   3.2 mph 97 % 0.0 in
09:52 7.3 °F 6.7 °F 1019.9 in Calm     96 % 0.0 in
09:57 7.5 °F 7.1 °F 1019.9 in Calm     97 % 0.0 in
10:02 7.7 °F 7.1 °F 1019.9 in Calm     96 % 0.0 in
10:07 8.2 °F 7.8 °F 1019.9 in Calm     97 % 0.0 in
10:12 8.2 °F 7.6 °F 1020.2 in Calm     96 % 0.0 in
10:17 8.8 °F 8.3 °F 1020.2 in Calm     97 % 0.0 in
10:22 9.6 °F 9.1 °F 1020.2 in Calm     97 % 0.0 in
10:27 9.7 °F 9.2 °F 1020.2 in Calm     97 % 0.0 in
10:32 9.8 °F 9.2 °F 1020.2 in Calm   1.6 mph 96 % 0.0 in
10:37 9.9 °F 9.3 °F 1020.2 in Calm   1.6 mph 96 % 0.0 in
10:42 10.2 °F 9.6 °F 1020.2 in Calm   3.2 mph 96 % 0.0 in
10:47 10.4 °F 9.8 °F 1020.5 in Calm   3.2 mph 96 % 0.0 in
10:52 10.7 °F 10.1 °F 1020.5 in Calm   3.2 mph 96 % 0.0 in
11:02 10.9 °F 10.1 °F 1020.5 in Calm   1.6 mph 95 % 0.0 in
11:07 11.1 °F 10.2 °F 1020.5 in Calm   1.6 mph 94 % 0.0 in
11:12 11.4 °F 10.3 °F 1020.5 in Calm   1.6 mph 93 % 0.0 in
11:17 11.6 °F 10.0 °F 1020.5 in Calm   3.2 mph 90 % 0.0 in
11:22 11.6 °F 10.0 °F 1020.9 in East 1.6 mph 3.2 mph 90 % 0.0 in
11:27 11.8 °F 10.0 °F 1020.9 in East 3.2 mph 6.4 mph 89 % 0.0 in
11:32 11.8 °F 9.9 °F 1020.9 in Calm   8.0 mph 88 % 0.0 in
11:37 12.1 °F 10.0 °F 1020.9 in ENE 3.2 mph 8.0 mph 87 % 0.0 in
11:42 12.3 °F 9.9 °F 1020.9 in ENE 4.8 mph 8.0 mph 85 % 0.0 in
11:47 12.5 °F 10.0 °F 1020.9 in Calm   8.0 mph 85 % 0.0 in
11:52 12.7 °F 10.1 °F 1020.9 in ENE 6.4 mph 8.0 mph 84 % 0.0 in
11:57 12.6 °F 9.8 °F 1020.9 in ENE 3.2 mph 9.7 mph 83 % 0.0 in
12:02 12.7 °F 9.7 °F 1020.9 in ENE 3.2 mph 9.7 mph 82 % 0.0 in
12:07 12.9 °F 9.7 °F 1020.9 in Calm   9.7 mph 81 % 0.0 in
12:12 13.2 °F 9.6 °F 1020.9 in Calm   9.7 mph 79 % 0.0 in
12:17 13.6 °F 9.3 °F 1020.9 in NNW 4.8 mph 9.7 mph 75 % 0.0 in
12:22 13.7 °F 9.3 °F 1020.9 in Calm   8.0 mph 75 % 0.0 in
12:32 13.8 °F 9.4 °F 1020.9 in Calm   8.0 mph 75 % 0.0 in
12:37 14.0 °F 9.2 °F 1020.9 in NNE 1.6 mph 8.0 mph 73 % 0.0 in
12:42 14.2 °F 9.4 °F 1020.9 in ENE 3.2 mph 6.4 mph 73 % 0.0 in
12:47 14.2 °F 9.2 °F 1020.9 in NE 4.8 mph 8.0 mph 72 % 0.0 in
12:52 14.3 °F 9.5 °F 1020.9 in NNE 4.8 mph 8.0 mph 73 % 0.0 in
12:57 14.2 °F 9.2 °F 1020.9 in NE 11.3 mph 11.3 mph 72 % 0.0 in
13:02 13.8 °F 9.0 °F 1020.9 in NNE 4.8 mph 17.7 mph 73 % 0.0 in
13:12 13.8 °F 9.0 °F 1020.9 in NNW 3.2 mph 17.7 mph 73 % 0.0 in
13:17 14.2 °F 8.6 °F 1020.9 in WNW 4.8 mph 11.3 mph 69 % 0.0 in
13:22 14.3 °F 9.1 °F 1020.9 in NNE 1.6 mph 9.7 mph 71 % 0.0 in
13:27 14.3 °F 8.5 °F 1020.9 in ESE 1.6 mph 9.7 mph 68 % 0.0 in
13:32 14.5 °F 8.7 °F 1020.9 in NE 3.2 mph 9.7 mph 68 % 0.0 in
13:37 14.4 °F 8.1 °F 1020.9 in NNE 8.0 mph 8.0 mph 66 % 0.0 in
13:42 14.2 °F 7.7 °F 1021.2 in North 3.2 mph 11.3 mph 65 % 0.0 in
13:47 14.5 °F 8.0 °F 1021.2 in NE 8.0 mph 11.3 mph 65 % 0.0 in
13:52 14.4 °F 8.1 °F 1021.2 in NNE 3.2 mph 11.3 mph 66 % 0.0 in
13:57 14.3 °F 8.7 °F 1021.2 in NNW 6.4 mph 9.7 mph 69 % 0.0 in
14:02 13.9 °F 8.5 °F 1021.2 in North 8.0 mph 14.5 mph 70 % 0.0 in
14:07 13.9 °F 8.7 °F 1021.2 in NNW 1.6 mph 14.5 mph 71 % 0.0 in
14:12 14.0 °F 8.2 °F 1021.2 in North 6.4 mph 14.5 mph 68 % 0.0 in
14:17 14.0 °F 8.8 °F 1021.2 in NNW 8.0 mph 16.1 mph 71 % 0.0 in
14:22 13.9 °F 8.5 °F 1021.2 in NW 8.0 mph 16.1 mph 70 % 0.0 in
14:32 13.9 °F 8.5 °F 1021.2 in NNE 9.7 mph 16.1 mph 70 % 0.0 in
14:37 14.0 °F 8.4 °F 1020.9 in North 3.2 mph 16.1 mph 69 % 0.0 in
14:42 14.0 °F 7.7 °F 1020.9 in NNE 14.5 mph 14.5 mph 66 % 0.0 in
14:47 14.1 °F 7.8 °F 1020.9 in North 1.6 mph 14.5 mph 66 % 0.0 in
14:52 14.2 °F 8.4 °F 1020.9 in North 11.3 mph 14.5 mph 68 % 0.0 in
14:57 14.2 °F 7.7 °F 1020.9 in NNE 6.4 mph 17.7 mph 65 % 0.0 in
15:02 14.3 °F 7.8 °F 1021.2 in NW 6.4 mph 17.7 mph 65 % 0.0 in
15:07 14.3 °F 8.0 °F 1021.2 in NNE 8.0 mph 16.1 mph 66 % 0.0 in
15:12 14.3 °F 8.0 °F 1021.2 in NNW 6.4 mph 16.1 mph 66 % 0.0 in
15:17 14.4 °F 8.3 °F 1021.2 in ENE 6.4 mph 17.7 mph 67 % 0.0 in
15:22 14.4 °F 8.3 °F 1021.2 in NNW 9.7 mph 17.7 mph 67 % 0.0 in
15:32 14.5 °F 8.4 °F 1021.2 in NNW 9.7 mph 17.7 mph 67 % 0.0 in
15:37 14.4 °F 8.6 °F 1021.2 in NNW 8.0 mph 17.7 mph 68 % 0.0 in
15:42 14.4 °F 8.8 °F 1021.2 in North 9.7 mph 17.7 mph 69 % 0.0 in
15:47 14.5 °F 8.7 °F 1021.2 in NW 4.8 mph 14.5 mph 68 % 0.0 in
15:52 14.6 °F 8.1 °F 1021.2 in NNE 11.3 mph 14.5 mph 65 % 0.0 in
15:57 14.6 °F 8.1 °F 1021.2 in ENE 6.4 mph 14.5 mph 65 % 0.0 in
16:02 14.7 °F 8.2 °F 1021.2 in NW 4.8 mph 16.1 mph 65 % 0.0 in
16:07 14.8 °F 8.7 °F 1021.2 in NW 6.4 mph 16.1 mph 67 % 0.0 in
16:12 14.8 °F 8.7 °F 1021.6 in NNW 8.0 mph 16.1 mph 67 % 0.0 in
16:17 14.7 °F 8.2 °F 1021.6 in NNW 3.2 mph 12.9 mph 65 % 0.0 in
16:22 14.7 °F 8.6 °F 1021.6 in NNE 3.2 mph 12.9 mph 67 % 0.0 in
16:27 14.6 °F 8.3 °F 1021.2 in North 3.2 mph 12.9 mph 66 % 0.0 in
16:32 14.6 °F 8.5 °F 1021.6 in NNW 9.7 mph 12.9 mph 67 % 0.0 in
16:37 14.6 °F 9.0 °F 1021.6 in NNW 3.2 mph 12.9 mph 69 % 0.0 in
16:42 15.0 °F 8.9 °F 1021.6 in WNW 3.2 mph 12.9 mph 67 % 0.0 in
16:47 15.6 °F 8.8 °F 1021.6 in NNW 6.4 mph 11.3 mph 64 % 0.0 in
16:52 15.5 °F 8.0 °F 1021.6 in WNW 6.4 mph 12.9 mph 61 % 0.0 in
16:57 15.4 °F 7.7 °F 1021.6 in North 6.4 mph 14.5 mph 60 % 0.0 in
17:02 15.4 °F 7.7 °F 1021.6 in ENE 3.2 mph 14.5 mph 60 % 0.0 in
17:12 15.0 °F 8.2 °F 1021.6 in NE 14.5 mph 20.9 mph 64 % 0.0 in
17:17 14.6 °F 8.1 °F 1021.6 in North 14.5 mph 25.7 mph 65 % 0.0 in
17:22 14.4 °F 7.7 °F 1021.6 in North 6.4 mph 25.7 mph 64 % 0.0 in
17:27 14.3 °F 8.3 °F 1021.6 in NW 11.3 mph 25.7 mph 67 % 0.0 in
17:32 14.0 °F 8.0 °F 1021.6 in NNW 11.3 mph 25.7 mph 67 % 0.0 in
17:37 13.8 °F 7.6 °F 1021.9 in NNW 4.8 mph 19.3 mph 66 % 0.0 in
17:42 13.7 °F 7.9 °F 1021.9 in NNW 4.8 mph 16.1 mph 68 % 0.0 in
17:47 13.7 °F 7.9 °F 1021.9 in NNW 4.8 mph 12.9 mph 68 % 0.0 in
17:52 13.7 °F 8.1 °F 1021.9 in NNW 4.8 mph 11.3 mph 69 % 0.0 in
17:57 13.8 °F 8.2 °F 1021.9 in North 8.0 mph 11.3 mph 69 % 0.0 in
18:02 13.9 °F 8.3 °F 1021.9 in North 3.2 mph 11.3 mph 69 % 0.0 in
18:07 14.0 °F 8.4 °F 1021.9 in NW 4.8 mph 11.3 mph 69 % 0.0 in
18:12 14.1 °F 8.5 °F 1021.9 in NNW 1.6 mph 11.3 mph 69 % 0.0 in
18:17 14.2 °F 8.8 °F 1022.2 in North 8.0 mph 8.0 mph 70 % 0.0 in
18:22 14.3 °F 8.5 °F 1021.9 in Calm   9.7 mph 68 % 0.0 in
18:27 14.4 °F 8.3 °F 1022.2 in NW 1.6 mph 11.3 mph 67 % 0.0 in
18:32 14.6 °F 8.3 °F 1022.2 in NNW 3.2 mph 11.3 mph 66 % 0.0 in
18:42 15.0 °F 8.0 °F 1022.2 in NNE 4.8 mph 9.7 mph 63 % 0.0 in
18:47 15.1 °F 8.1 °F 1022.2 in NW 6.4 mph 12.9 mph 63 % 0.0 in
18:52 15.0 °F 8.0 °F 1022.2 in NNE 8.0 mph 12.9 mph 63 % 0.0 in
18:57 15.0 °F 8.0 °F 1022.2 in ENE 8.0 mph 12.9 mph 63 % 0.0 in
19:02 14.9 °F 8.4 °F 1022.2 in ENE 3.2 mph 9.7 mph 65 % 0.0 in
19:07 14.8 °F 8.5 °F 1022.2 in NE 3.2 mph 9.7 mph 66 % 0.0 in
19:12 14.7 °F 8.6 °F 1022.6 in ENE 3.2 mph 9.7 mph 67 % 0.0 in
19:17 14.4 °F 8.8 °F 1022.6 in ENE 3.2 mph 6.4 mph 69 % 0.0 in
19:22 14.2 °F 8.8 °F 1022.6 in ENE 3.2 mph 6.4 mph 70 % 0.0 in
19:27 14.1 °F 8.7 °F 1022.6 in ENE 1.6 mph 6.4 mph 70 % 0.0 in
19:32 14.0 °F 8.8 °F 1022.6 in NNE 3.2 mph 6.4 mph 71 % 0.0 in
19:37 13.9 °F 8.5 °F 1022.6 in Calm   6.4 mph 70 % 0.0 in
19:42 13.9 °F 8.5 °F 1022.6 in Calm   4.8 mph 70 % 0.0 in
19:47 13.9 °F 8.3 °F 1022.6 in NE 1.6 mph 4.8 mph 69 % 0.0 in
19:52 13.9 °F 8.5 °F 1022.6 in Calm   4.8 mph 70 % 0.0 in
19:57 13.9 °F 8.1 °F 1022.9 in North 1.6 mph 6.4 mph 68 % 0.0 in
20:02 13.9 °F 7.9 °F 1022.9 in Calm   8.0 mph 67 % 0.0 in
20:07 13.8 °F 7.6 °F 1022.9 in Calm   8.0 mph 66 % 0.0 in
20:12 13.7 °F 7.5 °F 1022.9 in Calm   8.0 mph 66 % 0.0 in
20:17 13.7 °F 7.7 °F 1022.9 in Calm   3.2 mph 67 % 0.0 in
20:22 13.6 °F 7.8 °F 1022.9 in NW 1.6 mph 3.2 mph 68 % 0.0 in
20:32 13.4 °F 8.0 °F 1023.2 in WNW 1.6 mph 3.2 mph 70 % 0.0 in
20:37 13.2 °F 7.8 °F 1023.2 in Calm   3.2 mph 70 % 0.0 in
20:42 13.2 °F 7.8 °F 1023.2 in NW 1.6 mph 3.2 mph 70 % 0.0 in
20:52 13.3 °F 7.9 °F 1023.2 in Calm   3.2 mph 70 % 0.0 in
20:57 13.3 °F 7.7 °F 1023.6 in Calm   3.2 mph 69 % 0.0 in
21:02 13.3 °F 7.7 °F 1023.6 in Calm   1.6 mph 69 % 0.0 in
21:07 13.3 °F 7.9 °F 1023.6 in Calm   1.6 mph 70 % 0.0 in
21:12 13.2 °F 7.8 °F 1023.6 in NW 1.6 mph 1.6 mph 70 % 0.0 in
21:17 13.2 °F 7.8 °F 1023.6 in NW 1.6 mph 3.2 mph 70 % 0.0 in
21:22 13.2 °F 8.1 °F 1023.9 in NW 3.2 mph 3.2 mph 71 % 0.0 in
21:27 13.2 °F 8.1 °F 1023.9 in NNW 1.6 mph 4.8 mph 71 % 0.0 in
21:32 13.1 °F 8.2 °F 1023.9 in North 1.6 mph 4.8 mph 72 % 0.0 in
21:37 13.0 °F 8.1 °F 1023.9 in Calm   4.8 mph 72 % 0.0 in
21:47 12.9 °F 8.2 °F 1024.3 in WNW 1.6 mph 4.8 mph 73 % 0.0 in
21:52 12.7 °F 8.2 °F 1024.3 in NNW 1.6 mph 4.8 mph 74 % 0.0 in
21:57 12.6 °F 8.1 °F 1024.3 in NW 1.6 mph 4.8 mph 74 % 0.0 in
22:02 12.6 °F 8.1 °F 1024.3 in NW 1.6 mph 4.8 mph 74 % 0.0 in
22:07 12.6 °F 8.1 °F 1024.3 in NNW 4.8 mph 6.4 mph 74 % 0.0 in
22:12 12.5 °F 8.2 °F 1024.3 in NW 1.6 mph 6.4 mph 75 % 0.0 in
22:17 12.4 °F 7.9 °F 1024.3 in NW 1.6 mph 6.4 mph 74 % 0.0 in
22:22 12.3 °F 8.0 °F 1024.3 in North 1.6 mph 4.8 mph 75 % 0.0 in
22:27 12.2 °F 7.9 °F 1024.3 in NNW 3.2 mph 4.8 mph 75 % 0.0 in
22:32 12.1 °F 7.8 °F 1024.3 in NW 1.6 mph 3.2 mph 75 % 0.0 in
22:37 12.1 °F 7.8 °F 1024.6 in NNW 3.2 mph 4.8 mph 75 % 0.0 in
22:42 12.0 °F 7.7 °F 1024.6 in NW 4.8 mph 4.8 mph 75 % 0.0 in
22:47 12.0 °F 7.7 °F 1024.6 in NW 3.2 mph 6.4 mph 75 % 0.0 in
22:52 11.8 °F 7.5 °F 1024.6 in NW 3.2 mph 6.4 mph 75 % 0.0 in
22:57 11.7 °F 7.4 °F 1024.6 in NW 3.2 mph 6.4 mph 75 % 0.0 in
23:02 11.6 °F 7.5 °F 1024.6 in NW 6.4 mph 8.0 mph 76 % 0.0 in
23:07 11.4 °F 7.3 °F 1024.9 in NW 3.2 mph 8.0 mph 76 % 0.0 in
23:12 11.3 °F 7.2 °F 1024.9 in Calm   6.4 mph 76 % 0.0 in
23:17 11.3 °F 7.2 °F 1024.9 in NW 4.8 mph 6.4 mph 76 % 0.0 in
23:22 11.2 °F 7.3 °F 1024.9 in WNW 3.2 mph 4.8 mph 77 % 0.0 in
23:27 11.1 °F 7.2 °F 1024.9 in NW 1.6 mph 4.8 mph 77 % 0.0 in
23:32 11.1 °F 7.2 °F 1024.9 in NW 3.2 mph 4.8 mph 77 % 0.0 in
23:37 11.0 °F 7.1 °F 1024.9 in NW 1.6 mph 4.8 mph 77 % 0.0 in
23:42 10.8 °F 7.1 °F 1024.9 in WNW 3.2 mph 4.8 mph 78 % 0.0 in
23:52 10.8 °F 7.1 °F 1024.9 in NW 1.6 mph 4.8 mph 78 % 0.0 in
23:57 10.8 °F 7.1 °F 1024.9 in NW 1.6 mph 4.8 mph 78 % 0.0 in
Meteo18
Compliments of Weather Underground - 4 mb

Script developed by  Jim McMurry - jmcmurry@mwt.net Adapted for the template by  Wim van der Kuil - Leuven-Template.eu

You find our weather info also at:

European Weather Network

Weather Underground

Equipment we use:

Weather-station
Davis Vue

Weather-program
Meteobridge

Weather-server
Raspberry PI 2 B+

Provider
1 and 1

Davis Vue

Meteobridge

Raspberry PI 2 B+

1 and 1